Union, Nebraska
Current Conditions -  °F | °C
As of 9:35 PM on Wednesday 22 Oct 2014 (Local Time) from KPMV Reporting Station
Heavy Rain Heavy Rain  
Wind Chill: 62°   Ceiling: 500
Heat Index: 62°   Visibility: 1.2mi
Dew Point: 60°   Wind: 0mph
Humidity: 93%   Direction: NA
Pressure: 30.09"   Gusts: NA
Location:  40.81°N, 95.92°W
Report Text: KPMV 230235Z AUTO 00000KT 1 1/4SM +RA BKN005 BKN010 OVC026 17/15 A3009 RMK AO2 P0014 T01660154
Loading
Personal Weather Stations






























Interactive Weather Map
Tropical Storm Tracking
New forecast layout! Learn more

10-Day Weather Forecast

Advertisements
Track Severe Weather on mobile